sensor_id;sensor_type;location;lat;lon;timestamp;P1;durP1;ratioP1;P2;durP2;ratioP2
55537;SDS011;41383;51.418;7.286;2022-08-30T00:04:59;13.60;;;4.70;;
55537;SDS011;41383;51.418;7.286;2022-08-30T00:07:25;12.20;;;5.05;;
55537;SDS011;41383;51.418;7.286;2022-08-30T00:09:51;11.25;;;4.53;;
55537;SDS011;41383;51.418;7.286;2022-08-30T00:12:16;18.92;;;7.25;;
55537;SDS011;41383;51.418;7.286;2022-08-30T00:14:42;10.85;;;4.20;;
55537;SDS011;41383;51.418;7.286;2022-08-30T00:17:07;12.05;;;4.78;;
55537;SDS011;41383;51.418;7.286;2022-08-30T00:19:32;12.10;;;4.90;;
55537;SDS011;41383;51.418;7.286;2022-08-30T00:21:57;18.57;;;6.20;;
55537;SDS011;41383;51.418;7.286;2022-08-30T00:24:23;18.75;;;6.93;;
55537;SDS011;41383;51.418;7.286;2022-08-30T00:26:48;21.52;;;4.80;;
55537;SDS011;41383;51.418;7.286;2022-08-30T00:29:13;9.10;;;4.20;;
55537;SDS011;41383;51.418;7.286;2022-08-30T00:31:39;8.10;;;4.00;;
55537;SDS011;41383;51.418;7.286;2022-08-30T00:34:04;9.52;;;4.43;;
55537;SDS011;41383;51.418;7.286;2022-08-30T00:36:29;7.88;;;4.40;;
55537;SDS011;41383;51.418;7.286;2022-08-30T00:38:55;8.73;;;3.53;;
55537;SDS011;41383;51.418;7.286;2022-08-30T00:41:20;9.90;;;4.20;;
55537;SDS011;41383;51.418;7.286;2022-08-30T00:43:46;8.80;;;4.63;;
55537;SDS011;41383;51.418;7.286;2022-08-30T00:46:12;10.68;;;4.38;;
55537;SDS011;41383;51.418;7.286;2022-08-30T00:48:39;7.78;;;3.85;;
55537;SDS011;41383;51.418;7.286;2022-08-30T00:51:09;10.43;;;4.32;;
55537;SDS011;41383;51.418;7.286;2022-08-30T00:53:38;7.88;;;3.40;;
55537;SDS011;41383;51.418;7.286;2022-08-30T00:56:06;6.78;;;3.45;;
55537;SDS011;41383;51.418;7.286;2022-08-30T00:58:36;9.43;;;4.13;;
55537;SDS011;41383;51.418;7.286;2022-08-30T01:01:05;6.72;;;3.15;;
55537;SDS011;41383;51.418;7.286;2022-08-30T01:03:31;12.98;;;3.28;;
55537;SDS011;41383;51.418;7.286;2022-08-30T01:05:58;8.30;;;3.67;;
55537;SDS011;41383;51.418;7.286;2022-08-30T01:08:24;10.15;;;3.67;;
55537;SDS011;41383;51.418;7.286;2022-08-30T01:10:50;13.55;;;5.10;;
55537;SDS011;41383;51.418;7.286;2022-08-30T01:13:18;8.13;;;3.80;;
55537;SDS011;41383;51.418;7.286;2022-08-30T01:15:45;14.13;;;4.38;;
55537;SDS011;41383;51.418;7.286;2022-08-30T01:18:12;8.73;;;3.55;;
55537;SDS011;41383;51.418;7.286;2022-08-30T01:23:31;9.48;;;3.90;;
55537;SDS011;41383;51.418;7.286;2022-08-30T01:25:58;9.70;;;4.45;;
55537;SDS011;41383;51.418;7.286;2022-08-30T01:28:26;7.18;;;3.70;;
55537;SDS011;41383;51.418;7.286;2022-08-30T01:30:52;11.27;;;3.97;;
55537;SDS011;41383;51.418;7.286;2022-08-30T01:33:18;6.80;;;3.35;;
55537;SDS011;41383;51.418;7.286;2022-08-30T01:38:19;8.65;;;3.85;;
55537;SDS011;41383;51.418;7.286;2022-08-30T01:40:47;8.85;;;4.13;;
55537;SDS011;41383;51.418;7.286;2022-08-30T01:43:13;7.68;;;3.83;;
55537;SDS011;41383;51.418;7.286;2022-08-30T01:45:40;7.78;;;3.53;;
55537;SDS011;41383;51.418;7.286;2022-08-30T01:48:06;6.70;;;3.42;;
55537;SDS011;41383;51.418;7.286;2022-08-30T01:50:32;8.95;;;3.97;;
55537;SDS011;41383;51.418;7.286;2022-08-30T01:52:58;11.13;;;4.40;;
55537;SDS011;41383;51.418;7.286;2022-08-30T01:55:23;10.88;;;4.32;;
55537;SDS011;41383;51.418;7.286;2022-08-30T01:57:48;9.85;;;5.32;;
55537;SDS011;41383;51.418;7.286;2022-08-30T02:00:14;9.10;;;4.47;;
55537;SDS011;41383;51.418;7.286;2022-08-30T02:02:41;12.48;;;4.78;;
55537;SDS011;41383;51.418;7.286;2022-08-30T02:05:07;16.73;;;5.07;;
55537;SDS011;41383;51.418;7.286;2022-08-30T02:07:34;11.55;;;4.60;;
55537;SDS011;41383;51.418;7.286;2022-08-30T02:09:59;9.23;;;4.23;;
55537;SDS011;41383;51.418;7.286;2022-08-30T02:12:24;10.07;;;3.67;;
55537;SDS011;41383;51.418;7.286;2022-08-30T02:14:49;7.35;;;4.55;;
55537;SDS011;41383;51.418;7.286;2022-08-30T02:17:15;9.55;;;4.50;;
55537;SDS011;41383;51.418;7.286;2022-08-30T02:19:40;8.50;;;4.10;;
55537;SDS011;41383;51.418;7.286;2022-08-30T02:22:07;8.32;;;4.15;;
55537;SDS011;41383;51.418;7.286;2022-08-30T02:24:32;9.75;;;4.80;;
55537;SDS011;41383;51.418;7.286;2022-08-30T02:26:58;6.93;;;3.50;;
55537;SDS011;41383;51.418;7.286;2022-08-30T02:29:23;10.75;;;3.85;;
55537;SDS011;41383;51.418;7.286;2022-08-30T02:31:49;11.93;;;4.70;;
55537;SDS011;41383;51.418;7.286;2022-08-30T02:34:15;11.00;;;3.95;;
55537;SDS011;41383;51.418;7.286;2022-08-30T02:36:42;7.47;;;3.60;;
55537;SDS011;41383;51.418;7.286;2022-08-30T02:39:08;10.18;;;3.75;;
55537;SDS011;41383;51.418;7.286;2022-08-30T02:41:34;14.55;;;4.32;;
55537;SDS011;41383;51.418;7.286;2022-08-30T02:44:00;5.95;;;4.10;;
55537;SDS011;41383;51.418;7.286;2022-08-30T02:46:26;8.82;;;4.22;;
55537;SDS011;41383;51.418;7.286;2022-08-30T02:48:51;8.85;;;4.32;;
55537;SDS011;41383;51.418;7.286;2022-08-30T02:51:17;6.78;;;4.00;;
55537;SDS011;41383;51.418;7.286;2022-08-30T02:53:43;26.88;;;5.50;;
55537;SDS011;41383;51.418;7.286;2022-08-30T02:56:09;15.07;;;5.57;;
55537;SDS011;41383;51.418;7.286;2022-08-30T02:58:36;7.85;;;5.03;;
55537;SDS011;41383;51.418;7.286;2022-08-30T03:01:03;12.68;;;4.78;;
55537;SDS011;41383;51.418;7.286;2022-08-30T03:03:29;11.27;;;4.68;;
55537;SDS011;41383;51.418;7.286;2022-08-30T03:05:55;10.00;;;5.07;;
55537;SDS011;41383;51.418;7.286;2022-08-30T03:08:20;9.40;;;4.17;;
55537;SDS011;41383;51.418;7.286;2022-08-30T03:10:46;9.35;;;4.43;;
55537;SDS011;41383;51.418;7.286;2022-08-30T03:13:12;11.82;;;5.40;;
55537;SDS011;41383;51.418;7.286;2022-08-30T03:15:37;8.63;;;4.85;;
55537;SDS011;41383;51.418;7.286;2022-08-30T03:18:04;11.65;;;5.32;;
55537;SDS011;41383;51.418;7.286;2022-08-30T03:20:29;10.98;;;5.03;;
55537;SDS011;41383;51.418;7.286;2022-08-30T03:22:54;8.10;;;4.27;;
55537;SDS011;41383;51.418;7.286;2022-08-30T03:25:20;6.23;;;3.97;;
55537;SDS011;41383;51.418;7.286;2022-08-30T03:27:46;8.90;;;4.82;;
55537;SDS011;41383;51.418;7.286;2022-08-30T03:30:11;7.85;;;4.75;;
55537;SDS011;41383;51.418;7.286;2022-08-30T03:32:37;9.45;;;5.28;;
55537;SDS011;41383;51.418;7.286;2022-08-30T03:35:04;11.80;;;4.45;;
55537;SDS011;41383;51.418;7.286;2022-08-30T03:37:30;9.88;;;4.50;;
55537;SDS011;41383;51.418;7.286;2022-08-30T03:39:56;7.30;;;4.93;;
55537;SDS011;41383;51.418;7.286;2022-08-30T03:42:21;8.90;;;4.50;;
55537;SDS011;41383;51.418;7.286;2022-08-30T03:44:47;9.63;;;4.53;;
55537;SDS011;41383;51.418;7.286;2022-08-30T03:47:12;9.63;;;5.78;;
55537;SDS011;41383;51.418;7.286;2022-08-30T03:49:38;9.70;;;4.55;;
55537;SDS011;41383;51.418;7.286;2022-08-30T03:52:03;8.15;;;4.00;;
55537;SDS011;41383;51.418;7.286;2022-08-30T03:54:29;13.50;;;5.40;;
55537;SDS011;41383;51.418;7.286;2022-08-30T03:56:55;12.02;;;5.30;;
55537;SDS011;41383;51.418;7.286;2022-08-30T03:59:20;9.35;;;4.50;;
55537;SDS011;41383;51.418;7.286;2022-08-30T04:01:46;10.30;;;4.55;;
55537;SDS011;41383;51.418;7.286;2022-08-30T04:04:12;8.33;;;4.63;;
55537;SDS011;41383;51.418;7.286;2022-08-30T04:06:38;8.45;;;4.70;;
55537;SDS011;41383;51.418;7.286;2022-08-30T04:09:03;11.43;;;4.60;;
55537;SDS011;41383;51.418;7.286;2022-08-30T04:11:28;7.88;;;4.20;;
55537;SDS011;41383;51.418;7.286;2022-08-30T04:13:54;19.63;;;5.30;;
55537;SDS011;41383;51.418;7.286;2022-08-30T04:16:20;9.63;;;5.80;;
55537;SDS011;41383;51.418;7.286;2022-08-30T04:18:47;10.13;;;4.57;;
55537;SDS011;41383;51.418;7.286;2022-08-30T04:21:12;15.02;;;5.63;;
55537;SDS011;41383;51.418;7.286;2022-08-30T04:23:38;11.70;;;5.10;;
55537;SDS011;41383;51.418;7.286;2022-08-30T04:26:03;11.23;;;4.80;;
55537;SDS011;41383;51.418;7.286;2022-08-30T04:28:28;16.33;;;7.13;;
55537;SDS011;41383;51.418;7.286;2022-08-30T04:30:54;9.85;;;5.60;;
55537;SDS011;41383;51.418;7.286;2022-08-30T04:33:19;10.10;;;5.68;;
55537;SDS011;41383;51.418;7.286;2022-08-30T04:35:45;9.75;;;5.72;;
55537;SDS011;41383;51.418;7.286;2022-08-30T04:38:13;10.77;;;5.18;;
55537;SDS011;41383;51.418;7.286;2022-08-30T04:40:42;7.97;;;5.15;;
55537;SDS011;41383;51.418;7.286;2022-08-30T04:43:09;9.27;;;5.57;;
55537;SDS011;41383;51.418;7.286;2022-08-30T04:45:36;13.75;;;5.53;;
55537;SDS011;41383;51.418;7.286;2022-08-30T04:48:03;14.52;;;6.75;;
55537;SDS011;41383;51.418;7.286;2022-08-30T04:50:29;13.18;;;6.18;;
55537;SDS011;41383;51.418;7.286;2022-08-30T04:52:55;10.55;;;5.40;;
55537;SDS011;41383;51.418;7.286;2022-08-30T04:55:20;11.52;;;6.78;;
55537;SDS011;41383;51.418;7.286;2022-08-30T04:57:45;10.65;;;6.07;;
55537;SDS011;41383;51.418;7.286;2022-08-30T05:00:11;11.88;;;7.00;;
55537;SDS011;41383;51.418;7.286;2022-08-30T05:02:40;11.52;;;5.57;;
55537;SDS011;41383;51.418;7.286;2022-08-30T05:05:06;8.93;;;5.25;;
55537;SDS011;41383;51.418;7.286;2022-08-30T05:07:51;9.82;;;5.93;;
55537;SDS011;41383;51.418;7.286;2022-08-30T05:10:17;17.05;;;6.60;;
55537;SDS011;41383;51.418;7.286;2022-08-30T05:12:42;11.38;;;6.47;;
55537;SDS011;41383;51.418;7.286;2022-08-30T05:15:08;12.93;;;7.05;;
55537;SDS011;41383;51.418;7.286;2022-08-30T05:17:35;15.85;;;7.80;;
55537;SDS011;41383;51.418;7.286;2022-08-30T05:20:01;11.57;;;6.32;;
55537;SDS011;41383;51.418;7.286;2022-08-30T05:22:27;9.45;;;5.10;;
55537;SDS011;41383;51.418;7.286;2022-08-30T05:24:53;14.85;;;6.57;;
55537;SDS011;41383;51.418;7.286;2022-08-30T05:27:18;13.73;;;7.00;;
55537;SDS011;41383;51.418;7.286;2022-08-30T05:29:43;9.35;;;5.63;;
55537;SDS011;41383;51.418;7.286;2022-08-30T05:32:09;15.30;;;8.02;;
55537;SDS011;41383;51.418;7.286;2022-08-30T05:34:34;12.90;;;6.95;;
55537;SDS011;41383;51.418;7.286;2022-08-30T05:37:00;11.80;;;5.57;;
55537;SDS011;41383;51.418;7.286;2022-08-30T05:39:26;10.52;;;6.50;;
55537;SDS011;41383;51.418;7.286;2022-08-30T05:41:54;10.00;;;5.95;;
55537;SDS011;41383;51.418;7.286;2022-08-30T05:44:23;17.10;;;7.55;;
55537;SDS011;41383;51.418;7.286;2022-08-30T05:46:48;10.00;;;6.88;;
55537;SDS011;41383;51.418;7.286;2022-08-30T05:49:14;13.05;;;7.20;;
55537;SDS011;41383;51.418;7.286;2022-08-30T05:51:39;11.98;;;6.88;;
55537;SDS011;41383;51.418;7.286;2022-08-30T05:54:05;9.27;;;6.05;;
55537;SDS011;41383;51.418;7.286;2022-08-30T05:56:32;16.98;;;5.72;;
55537;SDS011;41383;51.418;7.286;2022-08-30T05:59:01;11.23;;;6.68;;
55537;SDS011;41383;51.418;7.286;2022-08-30T06:01:29;11.40;;;6.15;;
55537;SDS011;41383;51.418;7.286;2022-08-30T06:03:57;13.15;;;7.93;;
55537;SDS011;41383;51.418;7.286;2022-08-30T06:06:27;12.60;;;6.28;;
55537;SDS011;41383;51.418;7.286;2022-08-30T06:08:54;15.90;;;6.40;;
55537;SDS011;41383;51.418;7.286;2022-08-30T06:11:20;15.70;;;6.35;;
55537;SDS011;41383;51.418;7.286;2022-08-30T06:13:47;11.85;;;6.28;;
55537;SDS011;41383;51.418;7.286;2022-08-30T06:16:14;16.67;;;6.40;;
55537;SDS011;41383;51.418;7.286;2022-08-30T06:18:40;9.60;;;5.45;;
55537;SDS011;41383;51.418;7.286;2022-08-30T06:21:06;10.13;;;6.53;;
55537;SDS011;41383;51.418;7.286;2022-08-30T06:23:32;14.48;;;6.25;;
55537;SDS011;41383;51.418;7.286;2022-08-30T06:26:04;13.35;;;6.90;;
55537;SDS011;41383;51.418;7.286;2022-08-30T06:28:31;15.38;;;6.13;;
55537;SDS011;41383;51.418;7.286;2022-08-30T06:30:56;9.77;;;5.97;;
55537;SDS011;41383;51.418;7.286;2022-08-30T06:33:22;16.52;;;7.18;;
55537;SDS011;41383;51.418;7.286;2022-08-30T06:35:47;10.32;;;5.45;;
55537;SDS011;41383;51.418;7.286;2022-08-30T06:38:13;12.90;;;6.30;;
55537;SDS011;41383;51.418;7.286;2022-08-30T06:40:38;12.32;;;6.38;;
55537;SDS011;41383;51.418;7.286;2022-08-30T06:43:03;10.20;;;6.25;;
55537;SDS011;41383;51.418;7.286;2022-08-30T06:45:29;9.93;;;5.53;;
55537;SDS011;41383;51.418;7.286;2022-08-30T06:47:55;11.63;;;6.85;;
55537;SDS011;41383;51.418;7.286;2022-08-30T06:50:22;9.73;;;4.68;;
55537;SDS011;41383;51.418;7.286;2022-08-30T06:52:49;10.63;;;6.32;;
55537;SDS011;41383;51.418;7.286;2022-08-30T06:55:15;14.75;;;6.18;;
55537;SDS011;41383;51.418;7.286;2022-08-30T06:57:41;9.20;;;5.82;;
55537;SDS011;41383;51.418;7.286;2022-08-30T07:00:08;10.50;;;5.82;;
55537;SDS011;41383;51.418;7.286;2022-08-30T07:02:36;11.35;;;6.15;;
55537;SDS011;41383;51.418;7.286;2022-08-30T07:05:02;11.60;;;6.38;;
55537;SDS011;41383;51.418;7.286;2022-08-30T07:07:28;13.65;;;6.60;;
55537;SDS011;41383;51.418;7.286;2022-08-30T07:09:53;12.75;;;6.65;;
55537;SDS011;41383;51.418;7.286;2022-08-30T07:12:19;10.90;;;6.28;;
55537;SDS011;41383;51.418;7.286;2022-08-30T07:14:44;15.30;;;6.03;;
55537;SDS011;41383;51.418;7.286;2022-08-30T07:17:10;15.48;;;4.60;;
55537;SDS011;41383;51.418;7.286;2022-08-30T07:19:53;16.02;;;7.63;;
55537;SDS011;41383;51.418;7.286;2022-08-30T07:22:19;12.75;;;5.80;;
55537;SDS011;41383;51.418;7.286;2022-08-30T07:24:45;10.73;;;6.13;;
55537;SDS011;41383;51.418;7.286;2022-08-30T07:27:11;12.50;;;6.07;;
55537;SDS011;41383;51.418;7.286;2022-08-30T07:29:36;11.40;;;6.28;;
55537;SDS011;41383;51.418;7.286;2022-08-30T07:32:02;14.02;;;6.93;;
55537;SDS011;41383;51.418;7.286;2022-08-30T07:34:27;11.98;;;7.80;;
55537;SDS011;41383;51.418;7.286;2022-08-30T07:36:53;11.87;;;6.23;;
55537;SDS011;41383;51.418;7.286;2022-08-30T07:39:18;11.88;;;5.10;;
55537;SDS011;41383;51.418;7.286;2022-08-30T07:41:44;16.13;;;6.57;;
55537;SDS011;41383;51.418;7.286;2022-08-30T07:44:09;8.57;;;4.82;;
55537;SDS011;41383;51.418;7.286;2022-08-30T07:46:38;15.55;;;5.85;;
55537;SDS011;41383;51.418;7.286;2022-08-30T07:49:04;9.27;;;5.32;;
55537;SDS011;41383;51.418;7.286;2022-08-30T07:51:31;8.52;;;4.65;;
55537;SDS011;41383;51.418;7.286;2022-08-30T07:53:56;9.73;;;5.40;;
55537;SDS011;41383;51.418;7.286;2022-08-30T07:56:22;11.18;;;4.72;;
55537;SDS011;41383;51.418;7.286;2022-08-30T07:58:49;9.90;;;4.75;;
55537;SDS011;41383;51.418;7.286;2022-08-30T08:01:15;12.82;;;4.28;;
55537;SDS011;41383;51.418;7.286;2022-08-30T08:03:42;10.43;;;4.93;;
55537;SDS011;41383;51.418;7.286;2022-08-30T08:06:08;7.20;;;4.30;;
55537;SDS011;41383;51.418;7.286;2022-08-30T08:08:36;8.45;;;4.88;;
55537;SDS011;41383;51.418;7.286;2022-08-30T08:11:13;11.07;;;5.28;;
55537;SDS011;41383;51.418;7.286;2022-08-30T08:13:42;14.15;;;6.25;;
55537;SDS011;41383;51.418;7.286;2022-08-30T08:16:09;9.35;;;4.68;;
55537;SDS011;41383;51.418;7.286;2022-08-30T08:18:34;7.30;;;4.10;;
55537;SDS011;41383;51.418;7.286;2022-08-30T08:21:00;8.30;;;4.10;;
55537;SDS011;41383;51.418;7.286;2022-08-30T08:23:26;7.20;;;3.97;;
55537;SDS011;41383;51.418;7.286;2022-08-30T08:25:52;8.15;;;4.50;;
55537;SDS011;41383;51.418;7.286;2022-08-30T08:28:17;8.60;;;4.32;;
55537;SDS011;41383;51.418;7.286;2022-08-30T08:30:43;10.55;;;4.80;;
55537;SDS011;41383;51.418;7.286;2022-08-30T08:33:08;9.10;;;4.67;;
55537;SDS011;41383;51.418;7.286;2022-08-30T08:35:34;10.38;;;5.57;;
55537;SDS011;41383;51.418;7.286;2022-08-30T08:38:00;7.38;;;4.63;;
55537;SDS011;41383;51.418;7.286;2022-08-30T08:40:25;8.48;;;4.63;;
55537;SDS011;41383;51.418;7.286;2022-08-30T08:50:54;16.90;;;5.30;;
55537;SDS011;41383;51.418;7.286;2022-08-30T08:54:00;9.23;;;4.80;;
55537;SDS011;41383;51.418;7.286;2022-08-30T08:56:32;9.60;;;4.53;;
55537;SDS011;41383;51.418;7.286;2022-08-30T08:58:58;8.68;;;4.78;;
55537;SDS011;41383;51.418;7.286;2022-08-30T09:01:25;9.65;;;4.53;;
55537;SDS011;41383;51.418;7.286;2022-08-30T09:03:52;13.52;;;5.35;;
55537;SDS011;41383;51.418;7.286;2022-08-30T09:09:07;9.43;;;4.07;;
55537;SDS011;41383;51.418;7.286;2022-08-30T09:11:33;13.45;;;5.20;;
55537;SDS011;41383;51.418;7.286;2022-08-30T09:13:59;8.57;;;3.40;;
55537;SDS011;41383;51.418;7.286;2022-08-30T09:19:11;5.80;;;3.63;;
55537;SDS011;41383;51.418;7.286;2022-08-30T09:21:56;6.47;;;3.75;;
55537;SDS011;41383;51.418;7.286;2022-08-30T09:24:23;6.43;;;3.00;;
55537;SDS011;41383;51.418;7.286;2022-08-30T09:26:48;19.95;;;4.15;;
55537;SDS011;41383;51.418;7.286;2022-08-30T09:29:18;6.03;;;3.55;;
55537;SDS011;41383;51.418;7.286;2022-08-30T09:31:45;8.57;;;4.00;;
55537;SDS011;41383;51.418;7.286;2022-08-30T09:34:16;7.25;;;3.65;;
55537;SDS011;41383;51.418;7.286;2022-08-30T09:36:52;8.40;;;3.35;;
55537;SDS011;41383;51.418;7.286;2022-08-30T09:39:25;8.65;;;3.88;;
55537;SDS011;41383;51.418;7.286;2022-08-30T09:44:23;23.45;;;5.47;;
55537;SDS011;41383;51.418;7.286;2022-08-30T09:46:55;8.20;;;4.35;;
55537;SDS011;41383;51.418;7.286;2022-08-30T09:49:26;8.68;;;4.63;;
55537;SDS011;41383;51.418;7.286;2022-08-30T09:51:58;16.60;;;4.40;;
55537;SDS011;41383;51.418;7.286;2022-08-30T09:55:05;10.52;;;4.25;;
55537;SDS011;41383;51.418;7.286;2022-08-30T10:00:44;9.80;;;4.80;;
55537;SDS011;41383;51.418;7.286;2022-08-30T10:08:46;8.45;;;4.22;;
55537;SDS011;41383;51.418;7.286;2022-08-30T10:11:19;8.63;;;4.25;;
55537;SDS011;41383;51.418;7.286;2022-08-30T10:13:58;8.32;;;4.05;;
55537;SDS011;41383;51.418;7.286;2022-08-30T10:19:41;11.55;;;3.78;;
55537;SDS011;41383;51.418;7.286;2022-08-30T10:22:09;7.53;;;3.38;;
55537;SDS011;41383;51.418;7.286;2022-08-30T10:24:41;9.63;;;4.13;;
55537;SDS011;41383;51.418;7.286;2022-08-30T10:27:25;6.75;;;3.40;;
55537;SDS011;41383;51.418;7.286;2022-08-30T10:29:59;9.18;;;3.70;;
55537;SDS011;41383;51.418;7.286;2022-08-30T10:32:33;7.18;;;3.45;;
55537;SDS011;41383;51.418;7.286;2022-08-30T10:35:07;6.47;;;3.28;;
55537;SDS011;41383;51.418;7.286;2022-08-30T10:37:40;6.15;;;3.90;;
55537;SDS011;41383;51.418;7.286;2022-08-30T10:40:18;6.65;;;3.42;;
55537;SDS011;41383;51.418;7.286;2022-08-30T10:43:08;9.23;;;3.28;;
55537;SDS011;41383;51.418;7.286;2022-08-30T10:45:41;5.72;;;3.05;;
55537;SDS011;41383;51.418;7.286;2022-08-30T10:48:19;9.25;;;4.68;;
55537;SDS011;41383;51.418;7.286;2022-08-30T10:50:50;7.47;;;3.38;;
55537;SDS011;41383;51.418;7.286;2022-08-30T10:53:20;6.68;;;3.53;;
55537;SDS011;41383;51.418;7.286;2022-08-30T10:55:55;6.88;;;3.03;;
55537;SDS011;41383;51.418;7.286;2022-08-30T10:58:27;7.32;;;3.95;;
55537;SDS011;41383;51.418;7.286;2022-08-30T11:00:59;12.00;;;3.83;;
55537;SDS011;41383;51.418;7.286;2022-08-30T11:03:53;9.48;;;3.65;;
55537;SDS011;41383;51.418;7.286;2022-08-30T11:09:19;14.88;;;3.35;;
55537;SDS011;41383;51.418;7.286;2022-08-30T11:14:45;8.13;;;3.10;;
55537;SDS011;41383;51.418;7.286;2022-08-30T11:17:45;6.13;;;2.08;;
55537;SDS011;41383;51.418;7.286;2022-08-30T11:28:58;31.33;;;4.50;;
55537;SDS011;41383;51.418;7.286;2022-08-30T11:31:41;7.18;;;3.05;;
55537;SDS011;41383;51.418;7.286;2022-08-30T11:33:48;10.70;;;3.03;;
55537;SDS011;41383;51.418;7.286;2022-08-30T11:43:58;12.75;;;2.83;;
55537;SDS011;41383;51.418;7.286;2022-08-30T11:46:56;7.40;;;2.92;;
55537;SDS011;41383;51.418;7.286;2022-08-30T11:49:39;5.28;;;2.65;;
55537;SDS011;41383;51.418;7.286;2022-08-30T11:55:02;5.75;;;3.03;;
55537;SDS011;41383;51.418;7.286;2022-08-30T12:03:57;5.57;;;2.88;;
55537;SDS011;41383;51.418;7.286;2022-08-30T12:06:42;9.10;;;3.20;;
55537;SDS011;41383;51.418;7.286;2022-08-30T12:09:09;6.22;;;3.25;;
55537;SDS011;41383;51.418;7.286;2022-08-30T12:14:37;8.60;;;2.80;;
55537;SDS011;41383;51.418;7.286;2022-08-30T12:17:15;10.73;;;3.15;;
55537;SDS011;41383;51.418;7.286;2022-08-30T12:20:04;6.18;;;3.50;;
55537;SDS011;41383;51.418;7.286;2022-08-30T12:22:40;6.60;;;2.50;;
55537;SDS011;41383;51.418;7.286;2022-08-30T12:25:12;7.67;;;4.00;;
55537;SDS011;41383;51.418;7.286;2022-08-30T12:27:41;10.02;;;3.13;;
55537;SDS011;41383;51.418;7.286;2022-08-30T12:30:07;6.83;;;3.27;;
55537;SDS011;41383;51.418;7.286;2022-08-30T12:32:36;7.95;;;3.42;;
55537;SDS011;41383;51.418;7.286;2022-08-30T12:35:15;4.68;;;2.67;;
55537;SDS011;41383;51.418;7.286;2022-08-30T12:37:52;8.23;;;3.33;;
55537;SDS011;41383;51.418;7.286;2022-08-30T12:40:28;7.53;;;4.00;;
55537;SDS011;41383;51.418;7.286;2022-08-30T12:42:57;7.30;;;3.33;;
55537;SDS011;41383;51.418;7.286;2022-08-30T12:45:28;9.43;;;3.67;;
55537;SDS011;41383;51.418;7.286;2022-08-30T12:48:03;7.10;;;4.05;;
55537;SDS011;41383;51.418;7.286;2022-08-30T12:50:33;6.88;;;4.03;;
55537;SDS011;41383;51.418;7.286;2022-08-30T12:53:02;11.48;;;4.03;;
55537;SDS011;41383;51.418;7.286;2022-08-30T12:55:32;7.78;;;3.45;;
55537;SDS011;41383;51.418;7.286;2022-08-30T12:58:05;7.40;;;3.80;;
55537;SDS011;41383;51.418;7.286;2022-08-30T13:00:34;7.47;;;3.55;;
55537;SDS011;41383;51.418;7.286;2022-08-30T13:03:26;6.15;;;3.10;;
55537;SDS011;41383;51.418;7.286;2022-08-30T13:05:53;7.28;;;4.18;;
55537;SDS011;41383;51.418;7.286;2022-08-30T13:08:22;6.82;;;3.00;;
55537;SDS011;41383;51.418;7.286;2022-08-30T13:10:51;5.95;;;2.78;;
55537;SDS011;41383;51.418;7.286;2022-08-30T13:13:32;6.28;;;3.03;;
55537;SDS011;41383;51.418;7.286;2022-08-30T13:18:53;8.00;;;2.88;;
55537;SDS011;41383;51.418;7.286;2022-08-30T13:21:50;7.97;;;3.45;;
55537;SDS011;41383;51.418;7.286;2022-08-30T13:24:20;5.30;;;2.80;;
55537;SDS011;41383;51.418;7.286;2022-08-30T13:26:47;8.10;;;3.17;;
55537;SDS011;41383;51.418;7.286;2022-08-30T13:29:17;7.30;;;3.45;;
55537;SDS011;41383;51.418;7.286;2022-08-30T13:31:44;5.63;;;3.28;;
55537;SDS011;41383;51.418;7.286;2022-08-30T13:34:10;7.55;;;2.95;;
55537;SDS011;41383;51.418;7.286;2022-08-30T13:36:36;6.78;;;2.78;;
55537;SDS011;41383;51.418;7.286;2022-08-30T13:39:09;7.68;;;3.33;;
55537;SDS011;41383;51.418;7.286;2022-08-30T13:41:35;8.93;;;3.30;;
55537;SDS011;41383;51.418;7.286;2022-08-30T13:44:01;8.13;;;3.97;;
55537;SDS011;41383;51.418;7.286;2022-08-30T13:46:28;6.57;;;2.83;;
55537;SDS011;41383;51.418;7.286;2022-08-30T13:48:56;7.75;;;2.88;;
55537;SDS011;41383;51.418;7.286;2022-08-30T13:51:25;8.02;;;2.78;;
55537;SDS011;41383;51.418;7.286;2022-08-30T13:53:51;7.55;;;2.65;;
55537;SDS011;41383;51.418;7.286;2022-08-30T13:56:16;5.97;;;2.77;;
55537;SDS011;41383;51.418;7.286;2022-08-30T13:58:41;3.83;;;2.42;;
55537;SDS011;41383;51.418;7.286;2022-08-30T14:01:07;4.77;;;2.80;;
55537;SDS011;41383;51.418;7.286;2022-08-30T14:03:32;7.63;;;3.30;;
55537;SDS011;41383;51.418;7.286;2022-08-30T14:05:57;6.03;;;3.03;;
55537;SDS011;41383;51.418;7.286;2022-08-30T14:08:24;4.32;;;2.67;;
55537;SDS011;41383;51.418;7.286;2022-08-30T14:10:52;9.77;;;2.70;;
55537;SDS011;41383;51.418;7.286;2022-08-30T14:13:18;9.88;;;2.83;;
55537;SDS011;41383;51.418;7.286;2022-08-30T14:15:43;6.30;;;3.30;;
55537;SDS011;41383;51.418;7.286;2022-08-30T14:18:08;11.13;;;2.85;;
55537;SDS011;41383;51.418;7.286;2022-08-30T14:20:33;7.57;;;3.30;;
55537;SDS011;41383;51.418;7.286;2022-08-30T14:22:59;6.95;;;2.65;;
55537;SDS011;41383;51.418;7.286;2022-08-30T14:25:25;7.45;;;2.88;;
55537;SDS011;41383;51.418;7.286;2022-08-30T14:27:53;6.00;;;2.42;;
55537;SDS011;41383;51.418;7.286;2022-08-30T14:30:19;6.70;;;3.42;;
55537;SDS011;41383;51.418;7.286;2022-08-30T14:32:45;3.83;;;2.15;;
55537;SDS011;41383;51.418;7.286;2022-08-30T14:35:11;7.07;;;2.63;;
55537;SDS011;41383;51.418;7.286;2022-08-30T14:37:37;5.32;;;3.33;;
55537;SDS011;41383;51.418;7.286;2022-08-30T14:40:03;4.25;;;2.10;;
55537;SDS011;41383;51.418;7.286;2022-08-30T14:42:29;8.02;;;2.63;;
55537;SDS011;41383;51.418;7.286;2022-08-30T14:44:54;5.43;;;3.13;;
55537;SDS011;41383;51.418;7.286;2022-08-30T14:47:19;5.47;;;2.50;;
55537;SDS011;41383;51.418;7.286;2022-08-30T14:49:45;3.83;;;2.30;;
55537;SDS011;41383;51.418;7.286;2022-08-30T14:52:10;5.78;;;3.70;;
55537;SDS011;41383;51.418;7.286;2022-08-30T14:54:35;9.38;;;2.20;;
55537;SDS011;41383;51.418;7.286;2022-08-30T14:57:01;4.47;;;2.05;;
55537;SDS011;41383;51.418;7.286;2022-08-30T14:59:26;8.32;;;2.30;;
55537;SDS011;41383;51.418;7.286;2022-08-30T15:01:52;8.40;;;2.53;;
55537;SDS011;41383;51.418;7.286;2022-08-30T15:04:17;7.35;;;2.75;;
55537;SDS011;41383;51.418;7.286;2022-08-30T15:06:45;4.35;;;2.53;;
55537;SDS011;41383;51.418;7.286;2022-08-30T15:09:12;5.35;;;2.70;;
55537;SDS011;41383;51.418;7.286;2022-08-30T15:11:39;7.45;;;3.22;;
55537;SDS011;41383;51.418;7.286;2022-08-30T15:14:07;5.80;;;2.47;;
55537;SDS011;41383;51.418;7.286;2022-08-30T15:16:33;6.00;;;2.97;;
55537;SDS011;41383;51.418;7.286;2022-08-30T15:19:00;4.75;;;2.70;;
55537;SDS011;41383;51.418;7.286;2022-08-30T15:21:28;3.70;;;2.20;;
55537;SDS011;41383;51.418;7.286;2022-08-30T15:24:13;8.13;;;3.03;;
55537;SDS011;41383;51.418;7.286;2022-08-30T15:26:41;4.03;;;2.38;;
55537;SDS011;41383;51.418;7.286;2022-08-30T15:29:11;7.93;;;2.60;;
55537;SDS011;41383;51.418;7.286;2022-08-30T15:31:41;16.60;;;2.95;;
55537;SDS011;41383;51.418;7.286;2022-08-30T15:34:07;5.80;;;2.78;;
55537;SDS011;41383;51.418;7.286;2022-08-30T15:36:35;6.40;;;2.88;;
55537;SDS011;41383;51.418;7.286;2022-08-30T15:39:01;5.47;;;2.65;;
55537;SDS011;41383;51.418;7.286;2022-08-30T15:41:27;5.10;;;2.00;;
55537;SDS011;41383;51.418;7.286;2022-08-30T15:43:53;5.45;;;3.03;;
55537;SDS011;41383;51.418;7.286;2022-08-30T15:46:23;5.57;;;2.55;;
55537;SDS011;41383;51.418;7.286;2022-08-30T15:51:29;6.32;;;2.55;;
55537;SDS011;41383;51.418;7.286;2022-08-30T15:53:55;4.40;;;2.20;;
55537;SDS011;41383;51.418;7.286;2022-08-30T15:56:20;7.32;;;2.00;;
55537;SDS011;41383;51.418;7.286;2022-08-30T15:58:46;4.32;;;2.33;;
55537;SDS011;41383;51.418;7.286;2022-08-30T16:01:12;4.10;;;2.10;;
55537;SDS011;41383;51.418;7.286;2022-08-30T16:03:38;4.13;;;2.13;;
55537;SDS011;41383;51.418;7.286;2022-08-30T16:06:15;8.02;;;3.35;;